Time;durP1;ratioP1;P1;durP2;ratioP2;P2;SDS_P1;SDS_P2;PMS_P1;PMS_P2;Temp;Humidity;BMP_temperature;BMP_pressure;BME280_temperature;BME280_humidity;BME280_pressure;Samples;Min_cycle;Max_cycle;Signal;HPM_P1;HPM_P2
2022/10/21 00:00:56;;;;;;;21.63;9.45;;;;;;;13.56;100.00;100690.41;4753078;30;20074;-56
2022/10/21 00:03:25;;;;;;;14.98;8.45;;;;;;;13.55;100.00;100688.78;4781333;30;20060;-57
2022/10/21 00:05:52;;;;;;;18.13;8.60;;;;;;;13.54;100.00;100698.13;4757354;30;20086;-58
2022/10/21 00:08:21;;;;;;;12.70;7.43;;;;;;;13.56;100.00;100703.28;4756645;30;20106;-61
2022/10/21 00:10:53;;;;;;;15.88;8.35;;;;;;;13.55;100.00;100699.75;4769726;30;20064;-60
2022/10/21 00:13:21;;;;;;;13.13;8.23;;;;;;;13.54;100.00;100692.66;4753189;30;20048;-59
2022/10/21 00:16:01;;;;;;;18.17;9.70;;;;;;;13.55;100.00;100690.72;4754370;30;20396;-61
2022/10/21 00:18:28;;;;;;;16.77;8.18;;;;;;;13.54;100.00;100681.69;4753503;30;20044;-61
2022/10/21 00:20:57;;;;;;;17.95;8.32;;;;;;;13.55;100.00;100677.03;4752924;30;20048;-61
2022/10/21 00:23:25;;;;;;;15.88;8.40;;;;;;;13.55;100.00;100683.31;4750289;30;20378;-61
2022/10/21 00:25:59;;;;;;;14.43;8.48;;;;;;;13.55;100.00;100683.31;4751527;30;20447;-60
2022/10/21 00:28:27;;;;;;;15.70;8.48;;;;;;;13.55;100.00;100685.25;4752647;30;20063;-59
2022/10/21 00:30:55;;;;;;;19.27;8.25;;;;;;;13.55;100.00;100688.78;4753189;30;20048;-61
2022/10/21 00:33:26;;;;;;;16.27;8.52;;;;;;;13.55;100.00;100672.38;4754252;30;20463;-59
2022/10/21 00:35:56;;;;;;;14.13;8.23;;;;;;;13.56;100.00;100678.66;4754363;30;20102;-60
2022/10/21 00:38:24;;;;;;;14.15;8.20;;;;;;;13.56;100.00;100673.97;4754088;30;20060;-58
2022/10/21 00:40:51;;;;;;;15.95;7.97;;;;;;;13.55;100.00;100666.88;4754426;30;20516;-60
2022/10/21 00:43:19;;;;;;;15.57;8.27;;;;;;;13.56;100.00;100679.47;4754098;30;20056;-60
2022/10/21 00:45:49;;;;;;;18.60;8.45;;;;;;;13.57;100.00;100680.28;4751487;30;20504;-59
2022/10/21 00:48:39;;;;;;;17.90;8.93;;;;;;;13.56;100.00;100673.97;4754513;30;20151;-59
2022/10/21 00:51:10;;;;;;;20.73;8.40;;;;;;;13.56;100.00;100679.47;4753158;30;20084;-60
2022/10/21 00:53:41;;;;;;;14.40;8.48;;;;;;;13.56;100.00;100684.94;4752970;30;20044;-59
2022/10/21 00:56:11;;;;;;;15.07;8.05;;;;;;;13.57;100.00;100674.81;4753723;30;20647;-59
2022/10/21 00:58:44;;;;;;;16.40;8.77;;;;;;;13.58;100.00;100681.91;4753936;30;20098;-60
2022/10/21 01:01:12;;;;;;;18.63;8.20;;;;;;;13.57;100.00;100675.63;4752946;30;20048;-60
2022/10/21 01:03:47;;;;;;;13.30;7.93;;;;;;;13.58;100.00;100669.03;4754164;30;20098;-59
2022/10/21 01:06:15;;;;;;;14.95;8.85;;;;;;;13.58;100.00;100662.75;4752936;30;20110;-59
2022/10/21 01:08:43;;;;;;;14.77;8.52;;;;;;;13.58;100.00;100666.28;4751562;30;20053;-60
2022/10/21 01:11:13;;;;;;;12.88;8.13;;;;;;;13.58;100.00;100666.28;4752100;30;20068;-60
2022/10/21 01:14:21;;;;;;;14.23;8.70;;;;;;;13.58;100.00;100654.53;4753636;30;20052;-59
2022/10/21 01:16:57;;;;;;;16.23;7.85;;;;;;;13.58;100.00;100649.06;4753533;30;20048;-58
2022/10/21 01:19:25;;;;;;;;;;;;;;;13.59;100.00;100645.22;4754585;30;20040;-60
2022/10/21 01:21:54;;;;;;;16.08;8.23;;;;;;;13.58;100.00;100649.06;4752552;30;20390;-58
2022/10/21 01:24:22;;;;;;;18.48;7.72;;;;;;;13.57;100.00;100640.03;4752252;30;20087;-60
2022/10/21 01:27:11;;;;;;;15.00;8.20;;;;;;;13.57;100.00;100642.78;4753450;30;20110;-60
2022/10/21 01:30:00;;;;;;;18.52;8.23;;;;;;;13.57;100.00;100637.31;4752117;30;20504;-60
2022/10/21 01:32:50;;;;;;;17.45;8.45;;;;;;;13.57;100.00;100640.03;4753583;30;20052;-60
2022/10/21 01:35:25;;;;;;;17.40;7.90;;;;;;;13.56;100.00;100630.19;4750696;30;20072;-60
2022/10/21 01:38:11;;;;;;;17.33;8.75;;;;;;;13.55;100.00;100631.31;4752313;30;20056;-59
2022/10/21 01:40:50;;;;;;;16.00;7.97;;;;;;;13.54;100.00;100621.47;4741395;30;20040;-59
2022/10/21 01:43:28;;;;;;;16.92;8.55;;;;;;;13.52;100.00;100620.94;4753312;30;20052;-61
2022/10/21 01:46:11;;;;;;;16.02;8.43;;;;;;;13.49;100.00;100616.03;4752307;30;20052;-59
2022/10/21 01:48:44;;;;;;;16.48;8.07;;;;;;;13.43;100.00;100614.47;4751056;30;20457;-60
2022/10/21 01:51:12;;;;;;;13.82;8.38;;;;;;;13.41;100.00;100612.03;4737501;30;20052;-60
2022/10/21 01:53:51;;;;;;;16.80;8.15;;;;;;;13.41;100.00;100600.28;4736086;30;20056;-59
2022/10/21 01:56:19;;;;;;;17.02;8.52;;;;;;;13.40;100.00;100598.66;4749912;30;20052;-60
2022/10/21 01:58:48;;;;;;;20.00;8.75;;;;;;;13.39;100.00;100592.34;4751610;30;20072;-60
2022/10/21 02:01:16;;;;;;;17.10;8.32;;;;;;;13.37;100.00;100582.81;4751841;30;20044;-58
2022/10/21 02:03:46;;;;;;;16.67;7.90;;;;;;;13.33;100.00;100582.59;4734004;30;20048;-60
2022/10/21 02:06:14;;;;;;;14.57;7.40;;;;;;;13.32;100.00;100580.13;4753021;30;20048;-56
2022/10/21 02:08:42;;;;;;;13.60;7.72;;;;;;;13.32;100.00;100582.88;4752948;30;20048;-56
2022/10/21 02:11:11;;;;;;;15.52;8.07;;;;;;;13.31;100.00;100575.78;4733984;30;20079;-56
2022/10/21 02:13:56;;;;;;;15.40;8.30;;;;;;;13.31;100.00;100567.56;4746844;30;20052;-57
2022/10/21 02:16:29;;;;;;;15.50;8.40;;;;;;;13.31;100.00;100573.84;4752607;30;20056;-56
2022/10/21 02:18:58;;;;;;;13.77;7.95;;;;;;;13.30;100.00;100565.91;4751712;30;20059;-61
2022/10/21 02:21:28;;;;;;;14.68;7.75;;;;;;;13.29;100.00;100564.31;4752415;30;20048;-59
2022/10/21 02:24:23;;;;;;;13.73;7.88;;;;;;;13.30;100.00;100571.41;4736837;30;20079;-58
2022/10/21 02:26:51;;;;;;;13.70;8.20;;;;;;;13.31;100.00;100567.56;4752599;30;20462;-56
2022/10/21 02:29:23;;;;;;;15.73;8.25;;;;;;;13.32;100.00;100570.00;4736667;30;20064;-60
2022/10/21 02:32:18;;;;;;;13.55;8.20;;;;;;;13.32;100.00;100567.25;4753173;30;20048;-59
2022/10/21 02:35:01;;;;;;;15.10;8.05;;;;;;;13.31;100.00;100562.91;4745936;30;20116;-58
2022/10/21 02:37:55;;;;;;;14.88;8.30;;;;;;;13.28;100.00;100563.50;4754561;30;20055;-59
2022/10/21 02:40:44;;;;;;;14.00;8.15;;;;;;;13.27;100.00;100558.28;4752820;30;20072;-60
2022/10/21 02:43:18;;;;;;;14.25;8.48;;;;;;;13.26;100.00;100562.94;4751407;30;20048;-60
2022/10/21 02:45:47;;;;;;;17.65;8.52;;;;;;;13.26;100.00;100562.13;4750234;30;20123;-55
2022/10/21 02:48:15;;;;;;;19.92;8.40;;;;;;;13.26;100.00;100564.88;4737148;30;20052;-60
2022/10/21 02:50:43;;;;;;;17.15;8.40;;;;;;;13.28;100.00;100568.97;4752451;30;20058;-60
2022/10/21 02:53:11;;;;;;;16.85;8.52;;;;;;;13.30;100.00;100565.91;4739337;30;20048;-59
2022/10/21 02:55:38;;;;;;;19.75;8.40;;;;;;;13.30;100.00;100561.28;4755725;30;20467;-60
2022/10/21 02:58:06;;;;;;;12.73;7.60;;;;;;;13.30;100.00;100561.28;4754907;30;20464;-60
2022/10/21 03:00:33;;;;;;;14.63;7.85;;;;;;;13.31;100.00;100570.31;4755462;30;20074;-60
2022/10/21 03:03:01;;;;;;;13.70;7.95;;;;;;;13.30;100.00;100560.44;4756008;30;20102;-59
2022/10/21 03:05:29;;;;;;;16.13;7.85;;;;;;;13.30;100.00;100561.28;4756095;30;20113;-60
2022/10/21 03:08:01;;;;;;;20.65;8.20;;;;;;;13.29;100.00;100553.34;4755046;30;20036;-61
2022/10/21 03:10:29;;;;;;;12.20;7.22;;;;;;;13.29;100.00;100559.63;4754394;30;20055;-60
2022/10/21 03:12:56;;;;;;;13.48;8.25;;;;;;;13.28;100.00;100543.53;4756119;30;20059;-60
2022/10/21 03:15:24;;;;;;;15.07;8.07;;;;;;;13.27;100.00;100550.06;4755514;30;20044;-57
2022/10/21 03:17:51;;;;;;;14.70;7.65;;;;;;;13.25;100.00;100547.63;4755526;30;20048;-59
2022/10/21 03:20:19;;;;;;;14.55;8.18;;;;;;;13.25;100.00;100549.53;4755859;30;20071;-60
2022/10/21 03:22:47;;;;;;;15.38;8.23;;;;;;;13.24;100.00;100550.66;4754258;30;20051;-60
2022/10/21 03:25:14;;;;;;;14.68;7.72;;;;;;;13.24;100.00;100556.13;4755576;30;20060;-60
2022/10/21 03:27:42;;;;;;;15.60;8.23;;;;;;;13.22;100.00;100554.47;4768963;30;20040;-60
2022/10/21 03:30:10;;;;;;;16.92;7.68;;;;;;;13.20;100.00;100548.53;4755731;30;20408;-60
2022/10/21 03:32:37;;;;;;;16.95;7.65;;;;;;;13.18;100.00;100545.25;4755550;30;20048;-58
2022/10/21 03:35:06;;;;;;;12.63;7.45;;;;;;;13.17;100.00;100540.88;4753686;30;20589;-56
2022/10/21 03:37:34;;;;;;;13.93;7.45;;;;;;;13.15;100.00;100542.28;4755434;30;20496;-58
2022/10/21 03:40:01;;;;;;;13.82;7.68;;;;;;;13.13;100.00;100544.47;4755077;30;20056;-59
2022/10/21 03:42:29;;;;;;;16.63;7.80;;;;;;;13.11;100.00;100553.00;4755208;30;20056;-60
2022/10/21 03:44:57;;;;;;;13.07;7.40;;;;;;;13.14;100.00;100546.94;4755339;30;20123;-61
2022/10/21 03:47:26;;;;;;;13.20;7.30;;;;;;;13.17;100.00;100554.56;4753872;30;20063;-60
2022/10/21 03:49:53;;;;;;;15.20;7.35;;;;;;;13.18;100.00;100553.47;4755212;30;20052;-58
2022/10/21 03:52:21;;;;;;;13.77;8.07;;;;;;;13.19;100.00;100555.06;4755270;30;20044;-60
2022/10/21 03:54:48;;;;;;;15.05;7.53;;;;;;;13.19;100.00;100549.59;4754997;30;20065;-60
2022/10/21 03:57:16;;;;;;;12.65;7.32;;;;;;;13.20;100.00;100544.94;4754993;30;20056;-60
2022/10/21 03:59:44;;;;;;;16.50;7.40;;;;;;;13.20;100.00;100540.31;4751691;30;20052;-61
2022/10/21 04:02:11;;;;;;;13.85;6.78;;;;;;;13.19;100.00;100535.94;4766940;30;20052;-58
2022/10/21 04:04:39;;;;;;;15.85;7.28;;;;;;;13.19;100.00;100535.94;4752993;30;20059;-61
2022/10/21 04:07:06;;;;;;;14.00;7.07;;;;;;;13.19;100.00;100533.19;4752926;30;20052;-58
2022/10/21 04:09:34;;;;;;;12.93;6.93;;;;;;;13.20;100.00;100534.84;4738011;30;20055;-60
2022/10/21 04:12:02;;;;;;;14.65;6.93;;;;;;;13.22;100.00;100535.34;4753062;30;20068;-60
2022/10/21 04:14:29;;;;;;;11.05;7.22;;;;;;;13.24;100.00;100534.25;4754043;30;20105;-59
2022/10/21 04:16:57;;;;;;;14.35;6.72;;;;;;;13.23;100.00;100538.91;4768576;30;20052;-58
2022/10/21 04:19:33;;;;;;;13.45;6.68;;;;;;;13.20;100.00;100540.31;4767653;30;20052;-58
2022/10/21 04:22:01;;;;;;;12.13;6.72;;;;;;;13.20;100.00;100547.69;4754956;30;20504;-58
2022/10/21 04:24:28;;;;;;;14.05;6.47;;;;;;;13.19;100.00;100543.31;4767585;30;20051;-58
2022/10/21 04:26:56;;;;;;;13.57;6.70;;;;;;;13.17;100.00;100535.41;4771028;30;20075;-59
2022/10/21 04:29:23;;;;;;;13.10;7.18;;;;;;;13.14;100.00;100543.41;4764769;30;20524;-59
2022/10/21 04:31:51;;;;;;;16.58;6.55;;;;;;;13.11;100.00;100542.06;4737140;30;20398;-59
2022/10/21 04:34:19;;;;;;;13.75;6.40;;;;;;;13.11;100.00;100535.78;4753862;30;20059;-59
2022/10/21 04:36:46;;;;;;;16.58;6.43;;;;;;;13.11;100.00;100536.59;4769398;30;20048;-57
2022/10/21 04:39:15;;;;;;;14.52;7.28;;;;;;;13.12;100.00;100530.00;4766743;30;20050;-61
2022/10/21 04:41:44;;;;;;;14.90;6.28;;;;;;;13.10;100.00;100537.69;4754758;30;20052;-60
2022/10/21 04:44:12;;;;;;;15.90;6.60;;;;;;;13.07;100.00;100542.94;4736317;30;20078;-58
2022/10/21 04:46:39;;;;;;;15.15;6.53;;;;;;;13.07;100.00;100545.66;4749424;30;20131;-60
2022/10/21 04:49:07;;;;;;;16.88;6.65;;;;;;;13.08;100.00;100534.41;4753028;30;20052;-62
2022/10/21 04:51:35;;;;;;;13.73;6.68;;;;;;;13.09;100.00;100538.78;4754115;30;20131;-62
2022/10/21 04:54:03;;;;;;;12.50;6.40;;;;;;;13.09;100.00;100538.00;4754070;30;20063;-61
2022/10/21 04:56:31;;;;;;;15.80;6.60;;;;;;;13.08;100.00;100539.88;4754401;30;20072;-62
2022/10/21 04:58:58;;;;;;;11.35;5.78;;;;;;;13.08;100.00;100544.53;4753004;30;20138;-62
2022/10/21 05:01:26;;;;;;;14.52;6.63;;;;;;;13.09;100.00;100544.25;4754097;30;20055;-61
2022/10/21 05:03:54;;;;;;;14.05;6.75;;;;;;;13.08;100.00;100547.28;4753451;30;20055;-62
2022/10/21 05:06:22;;;;;;;11.23;6.50;;;;;;;13.08;100.00;100544.53;4753232;30;20052;-62
2022/10/21 05:08:49;;;;;;;13.23;5.88;;;;;;;13.06;100.00;100544.84;4752400;30;20135;-62
2022/10/21 05:11:17;;;;;;;13.13;6.70;;;;;;;13.05;100.00;100540.47;4753502;30;20048;-62
2022/10/21 05:13:45;;;;;;;15.10;6.28;;;;;;;13.05;100.00;100543.22;4738281;30;20063;-62
2022/10/21 05:16:13;;;;;;;11.60;5.93;;;;;;;13.05;100.00;100545.13;4765394;30;20524;-63
2022/10/21 05:18:40;;;;;;;10.93;6.68;;;;;;;13.05;100.00;100542.41;4753574;30;20055;-62
2022/10/21 05:21:08;;;;;;;14.82;7.03;;;;;;;13.00;100.00;100538.63;4753434;30;20052;-61
2022/10/21 05:23:36;;;;;;;14.85;7.10;;;;;;;12.98;100.00;100545.47;4753373;30;20052;-62
2022/10/21 05:26:04;;;;;;;12.40;7.45;;;;;;;12.94;100.00;100542.53;4751969;30;20431;-63
2022/10/21 05:28:31;;;;;;;16.20;7.97;;;;;;;12.93;100.00;100531.88;4754389;30;20044;-62
2022/10/21 05:30:59;;;;;;;16.92;7.85;;;;;;;12.93;100.00;100540.06;4751799;30;20048;-56
2022/10/21 05:33:27;;;;;;;12.00;7.10;;;;;;;12.94;100.00;100525.28;4750483;30;20044;-54
2022/10/21 05:36:01;;;;;;;14.30;7.13;;;;;;;12.96;100.00;100517.59;4753699;30;20053;-61
2022/10/21 05:38:29;;;;;;;14.95;7.00;;;;;;;12.96;100.00;100512.97;4082809;30;10000183;-61
2022/10/21 05:40:57;;;;;;;15.07;7.50;;;;;;;12.97;100.00;100520.06;4750486;30;20056;-59
2022/10/21 05:43:26;;;;;;;16.25;7.55;;;;;;;12.98;100.00;100516.22;4738971;30;20135;-61
2022/10/21 05:45:54;;;;;;;11.95;6.85;;;;;;;12.98;100.00;100515.41;4750417;30;20052;-59
2022/10/21 05:48:22;;;;;;;15.13;6.68;;;;;;;12.99;100.00;100511.56;4749491;30;20048;-58
2022/10/21 05:50:52;;;;;;;12.35;6.55;;;;;;;12.98;100.00;100504.47;4750410;30;20063;-61
2022/10/21 05:53:22;;;;;;;16.52;6.70;;;;;;;13.04;100.00;100508.78;4734584;30;20060;-58
2022/10/21 05:56:02;;;;;;;12.48;7.32;;;;;;;13.02;100.00;100505.50;4742108;30;20052;-61
2022/10/21 05:58:31;;;;;;;13.15;6.60;;;;;;;13.02;100.00;100497.31;4750117;30;20056;-62
2022/10/21 06:00:58;;;;;;;15.00;7.57;;;;;;;12.97;100.00;100500.09;4749674;30;20048;-62
2022/10/21 06:03:29;;;;;;;11.57;6.93;;;;;;;12.93;100.00;100496.31;4748646;30;20052;-61
2022/10/21 06:05:58;;;;;;;14.70;7.80;;;;;;;12.91;100.00;100490.31;4761325;30;20040;-62
2022/10/21 06:08:26;;;;;;;16.48;7.10;;;;;;;12.87;100.00;100486.53;4747858;30;20143;-61
2022/10/21 06:11:11;;;;;;;16.20;7.70;;;;;;;12.87;100.00;100500.22;4731422;30;20463;-61
2022/10/21 06:13:40;;;;;;;12.82;6.95;;;;;;;12.85;100.00;100500.50;4743462;30;20044;-61
2022/10/21 06:16:08;;;;;;;15.60;6.57;;;;;;;12.88;100.00;100504.59;4749974;30;20052;-61
2022/10/21 06:18:36;;;;;;;13.40;6.85;;;;;;;12.89;100.00;100496.09;4763463;30;20579;-62
2022/10/21 06:21:04;;;;;;;10.70;6.45;;;;;;;12.92;100.00;100494.69;4748420;30;20071;-62
2022/10/21 06:23:32;;;;;;;13.18;6.03;;;;;;;12.92;100.00;100502.91;4749934;30;20056;-61
2022/10/21 06:26:02;;;;;;;14.70;7.10;;;;;;;12.91;100.00;100495.78;4748423;30;20444;-61
2022/10/21 06:28:33;;;;;;;14.23;7.18;;;;;;;12.89;100.00;100500.72;4748757;30;20047;-62
2022/10/21 06:31:00;;;;;;;15.10;6.55;;;;;;;12.88;100.00;100504.59;4749739;30;20139;-62
2022/10/21 06:33:28;;;;;;;14.15;6.80;;;;;;;12.87;100.00;100502.94;4747380;30;20041;-60
2022/10/21 06:35:56;;;;;;;15.05;6.63;;;;;;;12.87;100.00;100508.41;4762991;30;20048;-61
2022/10/21 06:38:25;;;;;;;12.75;6.38;;;;;;;12.89;100.00;100517.13;4749386;30;20179;-62
2022/10/21 06:40:59;;;;;;;9.90;6.25;;;;;;;12.90;100.00;100516.06;4748127;30;20493;-61
2022/10/21 06:43:27;;;;;;;15.82;6.47;;;;;;;12.92;100.00;100513.84;4733978;30;20052;-62
2022/10/21 06:46:05;;;;;;;12.95;6.30;;;;;;;12.93;100.00;100518.19;4749456;30;20039;-58
2022/10/21 06:48:33;;;;;;;18.17;6.93;;;;;;;12.95;100.00;100513.25;4749801;30;20056;-59
2022/10/21 06:51:06;;;;;;;19.25;6.95;;;;;;;12.95;100.00;100507.78;4749642;30;20052;-62
2022/10/21 06:53:34;;;;;;;11.60;6.50;;;;;;;12.99;100.00;100523.31;4751300;30;20044;-61
2022/10/21 06:56:13;;;;;;;14.63;6.43;;;;;;;13.01;100.00;100533.94;4751928;30;20056;-62
2022/10/21 06:58:44;;;;;;;16.83;6.45;;;;;;;13.02;100.00;100540.25;4751163;30;20048;-60
2022/10/21 07:01:24;;;;;;;13.40;6.40;;;;;;;13.04;100.00;100552.53;4736831;30;20048;-61
2022/10/21 07:04:12;;;;;;;12.02;6.07;;;;;;;13.04;100.00;100551.72;4752179;30;20076;-57
2022/10/21 07:06:39;;;;;;;11.60;6.30;;;;;;;13.05;100.00;100547.88;4752640;30;20037;-56
2022/10/21 07:09:07;;;;;;;16.33;6.22;;;;;;;13.05;100.00;100550.59;4753003;30;20121;-60
2022/10/21 07:11:35;;;;;;;13.38;6.20;;;;;;;13.04;100.00;100555.28;4749567;30;20060;-60
2022/10/21 07:14:03;;;;;;;11.07;6.13;;;;;;;13.06;100.00;100569.47;4751576;30;20048;-59
2022/10/21 07:16:33;;;;;;;14.30;6.18;;;;;;;13.07;100.00;100573.03;4766195;30;20486;-60
2022/10/21 07:19:01;;;;;;;13.25;6.15;;;;;;;13.08;100.00;100575.44;4753844;30;20058;-57
2022/10/21 07:21:30;;;;;;;13.45;6.20;;;;;;;13.10;100.00;100577.91;4753193;30;20051;-54
2022/10/21 07:23:58;;;;;;;11.88;6.00;;;;;;;13.10;100.00;100578.72;4751242;30;20462;-57
2022/10/21 07:26:28;;;;;;;13.50;6.53;;;;;;;13.12;100.00;100581.97;4741826;30;20574;-55
2022/10/21 07:28:58;;;;;;;11.40;6.35;;;;;;;13.12;100.00;100587.44;4751473;30;20396;-55
2022/10/21 07:31:27;;;;;;;11.48;6.22;;;;;;;13.14;100.00;100581.69;4751998;30;20048;-58
2022/10/21 07:33:55;;;;;;;14.75;6.18;;;;;;;13.15;100.00;100589.59;4750361;30;20424;-57
2022/10/21 07:36:26;;;;;;;11.55;6.50;;;;;;;13.16;100.00;100584.97;4742542;30;20085;-59
2022/10/21 07:38:56;;;;;;;14.35;6.85;;;;;;;13.17;100.00;100581.91;4763185;30;20052;-60
2022/10/21 07:41:31;;;;;;;13.45;5.63;;;;;;;13.18;100.00;100578.09;4755054;30;20060;-60
2022/10/21 07:43:59;;;;;;;12.15;6.10;;;;;;;13.18;100.00;100580.81;4754514;30;20060;-58
2022/10/21 07:46:26;;;;;;;14.90;6.18;;;;;;;13.20;100.00;100585.97;4755272;30;20492;-54
2022/10/21 07:48:54;;;;;;;15.20;6.38;;;;;;;13.21;100.00;100588.44;4752373;30;20043;-59
2022/10/21 07:51:24;;;;;;;14.68;6.50;;;;;;;13.22;100.00;100587.31;4755404;30;20056;-58
2022/10/21 07:53:58;;;;;;;12.98;6.43;;;;;;;13.24;100.00;100580.75;4754847;30;20076;-56
2022/10/21 07:56:29;;;;;;;11.20;6.15;;;;;;;13.25;100.00;100574.16;4754859;30;20054;-58
2022/10/21 07:58:57;;;;;;;13.90;6.35;;;;;;;13.26;100.00;100571.16;4754841;30;20044;-57
2022/10/21 08:01:25;;;;;;;14.45;6.28;;;;;;;13.27;100.00;100578.28;4753095;30;20047;-56
2022/10/21 08:03:54;;;;;;;12.23;5.82;;;;;;;13.29;100.00;100575.25;4754541;30;20118;-59
2022/10/21 08:06:23;;;;;;;14.30;6.60;;;;;;;13.30;100.00;100582.34;4738910;30;20049;-59
2022/10/21 08:08:51;;;;;;;13.30;5.88;;;;;;;13.32;100.00;100585.59;4754176;30;20056;-60
2022/10/21 08:11:27;;;;;;;14.77;6.38;;;;;;;13.32;100.00;100580.13;4750221;30;20055;-60
2022/10/21 08:13:55;;;;;;;11.32;6.22;;;;;;;13.33;100.00;100579.84;4751611;30;20093;-59
2022/10/21 08:16:23;;;;;;;13.57;5.90;;;;;;;13.37;100.00;100588.28;4753170;30;20051;-58
2022/10/21 08:18:51;;;;;;;16.90;5.97;;;;;;;13.38;100.00;100589.91;4738130;30;20056;-59
2022/10/21 08:21:20;;;;;;;10.93;5.70;;;;;;;13.39;100.00;100583.31;4754200;30;20170;-58
2022/10/21 08:23:48;;;;;;;12.60;6.00;;;;;;;13.39;100.00;100581.41;4753973;30;20137;-55
2022/10/21 08:26:16;;;;;;;11.82;6.20;;;;;;;13.40;100.00;100571.28;4752669;30;20044;-58
2022/10/21 08:28:44;;;;;;;16.52;6.75;;;;;;;13.40;100.00;100561.16;4753865;30;20044;-58
2022/10/21 08:31:14;;;;;;;12.77;5.72;;;;;;;13.42;100.00;100577.25;4753345;30;20132;-54
2022/10/21 08:33:42;;;;;;;14.57;5.57;;;;;;;13.42;100.00;100575.34;4752597;30;20060;-52
2022/10/21 08:36:19;;;;;;;12.80;5.85;;;;;;;13.43;100.00;100576.97;4752823;30;20122;-58
2022/10/21 08:38:47;;;;;;;12.68;6.30;;;;;;;13.44;100.00;100583.25;4753056;30;20126;-52
2022/10/21 08:41:29;;;;;;;11.65;5.85;;;;;;;13.45;100.00;100587.66;4753597;30;20056;-58
2022/10/21 08:44:21;;;;;;;10.68;5.00;;;;;;;13.46;100.00;100589.25;4744148;30;20052;-55
2022/10/21 08:47:16;;;;;;;15.52;6.13;;;;;;;13.46;100.00;100586.53;4752700;30;20451;-58
2022/10/21 08:49:47;;;;;;;11.05;5.30;;;;;;;13.47;100.00;100581.84;4751003;30;20062;-54
2022/10/21 08:52:47;;;;;;;13.98;6.40;;;;;;;13.47;100.00;100588.16;4752608;30;20060;-50
2022/10/21 08:55:36;;;;;;;17.60;6.90;;;;;;;13.48;100.00;100598.00;4747191;30;20056;-53
2022/10/21 08:58:04;;;;;;;12.85;5.47;;;;;;;13.48;100.00;100602.66;4753882;30;20110;-54
2022/10/21 09:00:47;;;;;;;16.63;5.90;;;;;;;13.47;100.00;100596.38;4775053;30;20052;-50
2022/10/21 09:03:39;;;;;;;11.45;5.47;;;;;;;13.49;100.00;100601.53;4762042;30;20408;-53
2022/10/21 09:06:13;;;;;;;15.65;6.13;;;;;;;13.47;100.00;100596.38;4759442;30;20047;-57
2022/10/21 09:09:00;;;;;;;12.63;5.50;;;;;;;13.49;100.00;100607.00;4738630;30;20052;-57
2022/10/21 09:11:35;;;;;;;13.40;6.07;;;;;;;13.50;100.00;100608.66;4761040;30;20055;-53
2022/10/21 09:14:27;;;;;;;10.32;5.38;;;;;;;13.50;100.00;100612.22;4762560;30;20049;-55
2022/10/21 09:17:17;;;;;;;10.88;5.63;;;;;;;13.51;100.00;100613.00;4753964;30;20051;-58
2022/10/21 09:19:56;;;;;;;13.10;6.20;;;;;;;13.53;100.00;100610.81;4752637;30;20048;-58
2022/10/21 09:22:57;;;;;;;16.80;6.38;;;;;;;13.54;100.00;100615.16;4774273;30;20052;-56
2022/10/21 09:25:38;;;;;;;13.10;6.15;;;;;;;13.53;100.00;100602.59;4758796;30;20044;-61
2022/10/21 09:28:12;;;;;;;18.48;6.32;;;;;;;13.55;100.00;100608.59;4751057;30;20052;-58
2022/10/21 09:30:40;;;;;;;12.45;5.60;;;;;;;13.56;100.00;100602.81;4753680;30;20412;-58
2022/10/21 09:33:21;;;;;;;12.73;6.00;;;;;;;13.59;100.00;100613.19;4753369;30;20052;-60
2022/10/21 09:35:53;;;;;;;14.35;6.13;;;;;;;13.62;100.00;100604.38;4753480;30;20468;-55
2022/10/21 09:38:45;;;;;;;11.55;5.28;;;;;;;13.67;100.00;100608.97;4753867;30;20063;-60
2022/10/21 09:41:23;;;;;;;13.50;5.70;;;;;;;13.71;100.00;100620.16;4754383;30;20051;-58
2022/10/21 09:43:50;;;;;;;15.15;7.00;;;;;;;13.72;100.00;100614.38;4737927;30;20393;-57
2022/10/21 09:46:19;;;;;;;16.58;6.95;;;;;;;13.75;100.00;100618.47;4754096;30;20118;-58
2022/10/21 09:48:51;;;;;;;13.20;6.57;;;;;;;13.77;100.00;100611.56;4753215;30;20059;-61
2022/10/21 09:51:41;;;;;;;19.77;6.70;;;;;;;13.78;100.00;100615.13;4743107;30;20135;-59
2022/10/21 09:54:14;;;;;;;16.83;6.65;;;;;;;13.78;100.00;100609.66;4752180;30;20048;-59
2022/10/21 09:56:55;;;;;;;15.23;6.30;;;;;;;13.80;100.00;100596.47;4745179;30;20500;-61
2022/10/21 09:59:24;;;;;;;14.45;6.40;;;;;;;13.83;100.00;100598.66;4750699;30;20055;-60
2022/10/21 10:02:06;;;;;;;13.80;6.57;;;;;;;13.85;100.00;100593.66;4752531;30;20055;-62
2022/10/21 10:04:34;;;;;;;10.85;6.28;;;;;;;13.86;100.00;100595.31;4753537;30;20057;-61
2022/10/21 10:07:19;;;;;;;14.88;6.63;;;;;;;13.88;100.00;100579.41;4751445;30;20044;-57
2022/10/21 10:09:47;;;;;;;15.98;6.75;;;;;;;13.91;100.00;100597.16;4751399;30;20044;-60
2022/10/21 10:12:26;;;;;;;15.75;6.43;;;;;;;13.91;100.00;100589.75;4752627;30;20068;-61
2022/10/21 10:14:54;;;;;;;14.40;6.45;;;;;;;13.93;100.00;100598.50;4750350;30;20142;-59
2022/10/21 10:17:36;;;;;;;14.45;5.93;;;;;;;13.95;100.00;100607.25;4750096;30;20070;-60
2022/10/21 10:20:03;;;;;;;13.65;6.63;;;;;;;13.98;100.00;100614.84;4743679;30;20537;-63
2022/10/21 10:22:37;;;;;;;12.00;5.65;;;;;;;14.01;100.00;100617.00;4750255;30;20082;-61
2022/10/21 10:25:16;;;;;;;10.65;5.85;;;;;;;14.05;100.00;100618.03;4752599;30;20056;-59
2022/10/21 10:27:50;;;;;;;15.85;5.80;;;;;;;14.10;100.00;100622.63;4752408;30;20043;-61
2022/10/21 10:30:18;;;;;;;12.50;5.82;;;;;;;14.13;100.00;100615.75;4749338;30;20051;-60
2022/10/21 10:32:46;;;;;;;14.75;6.13;;;;;;;14.17;100.00;100625.00;4751537;30;20052;-57
2022/10/21 10:35:33;;;;;;;12.80;6.20;;;;;;;14.20;100.00;100618.91;4744578;30;20052;-58
2022/10/21 10:38:02;;;;;;;10.48;5.85;;;;;;;14.22;100.00;100628.47;4751203;30;20412;-52
2022/10/21 10:40:40;;;;;;;12.00;5.68;;;;;;;14.23;100.00;100632.03;4751151;30;20044;-60
2022/10/21 10:43:20;;;;;;;16.80;6.18;;;;;;;14.25;100.00;100636.09;4423117;30;10000454;-60
2022/10/21 10:45:59;;;;;;;16.58;6.30;;;;;;;14.27;100.00;100638.53;4748440;30;20280;-59
2022/10/21 10:48:32;;;;;;;15.88;6.47;;;;;;;14.28;100.00;100634.69;4747560;30;20393;-59
2022/10/21 10:51:00;;;;;;;13.00;6.13;;;;;;;14.30;100.00;100635.19;4749248;30;20074;-58
2022/10/21 10:53:34;;;;;;;11.23;6.15;;;;;;;14.32;100.00;100632.97;4747198;30;20063;-63
2022/10/21 10:56:22;;;;;;;15.05;6.03;;;;;;;14.35;100.00;100642.53;4749178;30;20055;-57
2022/10/21 10:59:19;;;;;;;15.25;6.93;;;;;;;14.40;100.00;100632.28;4718558;30;20063;-60
2022/10/21 11:02:08;;;;;;;14.57;6.07;;;;;;;14.44;100.00;100638.00;4744764;30;20065;-60
2022/10/21 11:04:59;;;;;;;16.02;6.88;;;;;;;14.48;100.00;100633.56;4738862;30;20527;-60
2022/10/21 11:07:34;;;;;;;13.13;7.25;;;;;;;14.52;100.00;100634.56;4748946;30;20805;-59
2022/10/21 11:10:06;;;;;;;14.93;6.53;;;;;;;14.57;100.00;100634.53;4745763;30;20056;-57
2022/10/21 11:12:34;;;;;;;14.02;6.53;;;;;;;14.61;100.00;100624.59;4746556;30;20060;-55
2022/10/21 11:15:02;;;;;;;13.45;6.50;;;;;;;14.68;100.00;100626.97;4745023;30;20107;-57
2022/10/21 11:17:41;;;;;;;14.65;6.53;;;;;;;14.75;100.00;100615.59;4746869;30;20049;-60
2022/10/21 11:20:28;;;;;;;15.63;6.55;;;;;;;14.77;100.00;100613.34;4750321;30;20056;-58
2022/10/21 11:23:27;;;;;;;18.00;6.50;;;;;;;14.81;100.00;100612.44;4750465;30;20086;-56
2022/10/21 11:26:09;;;;;;;11.80;6.28;;;;;;;14.84;100.00;100606.38;4757684;30;20527;-57
2022/10/21 11:28:45;;;;;;;20.25;9.35;;;;;;;14.88;100.00;100599.16;4750928;30;20060;-57
2022/10/21 11:31:47;;;;;;;20.52;9.38;;;;;;;14.96;100.00;100594.09;4752119;30;20569;-57
2022/10/21 11:34:44;;;;;;;35.35;19.70;;;;;;;15.03;100.00;100594.50;4746530;30;20078;-57